Time;durP1;ratioP1;P1;durP2;ratioP2;P2;SDS_P1;SDS_P2;PMS_P1;PMS_P2;Temp;Humidity;BMP_temperature;BMP_pressure;BME280_temperature;BME280_humidity;BME280_pressure;Samples;Min_cycle;Max_cycle;Signal;HPM_P1;HPM_P2
2021/09/14 00:02:01;;;;;;;9.73;6.97;;;;;;;17.07;98.63;100288.53;5034424;28;20044;-66
2021/09/14 00:04:45;;;;;;;8.88;7.30;;;;;;;17.02;98.64;100279.34;5020565;28;20080;-66
2021/09/14 00:07:29;;;;;;;9.32;6.93;;;;;;;17.02;98.48;100290.97;5035151;28;20043;-66
2021/09/14 00:10:13;;;;;;;7.88;6.32;;;;;;;16.99;99.41;100290.50;5020147;28;20060;-67
2021/09/14 00:12:57;;;;;;;8.63;6.63;;;;;;;16.94;100.00;100280.28;5020354;28;20129;-66
2021/09/14 00:15:40;;;;;;;10.45;6.95;;;;;;;16.90;100.00;100284.34;5035383;28;20122;-66
2021/09/14 00:18:24;;;;;;;6.47;5.72;;;;;;;16.84;100.00;100282.41;5035237;28;20087;-66
2021/09/14 00:21:08;;;;;;;7.13;5.88;;;;;;;16.78;100.00;100282.31;5034225;28;20052;-66
2021/09/14 00:23:52;;;;;;;7.97;6.55;;;;;;;16.72;100.00;100272.25;5035238;28;20170;-66
2021/09/14 00:26:36;;;;;;;7.50;6.38;;;;;;;16.66;100.00;100276.50;5019946;28;20072;-66
2021/09/14 00:29:20;;;;;;;10.82;6.35;;;;;;;16.60;100.00;100277.22;5034905;28;20048;-66
2021/09/14 00:32:04;;;;;;;8.02;6.30;;;;;;;16.54;100.00;100274.44;5019270;28;20075;-67
2021/09/14 00:34:48;;;;;;;7.18;6.22;;;;;;;16.46;100.00;100283.44;5019977;28;20075;-66
2021/09/14 00:37:31;;;;;;;7.35;6.57;;;;;;;16.40;100.00;100272.56;5034702;28;20530;-66
2021/09/14 00:40:15;;;;;;;9.20;6.70;;;;;;;16.39;100.00;100278.94;5034769;28;20049;-67
2021/09/14 00:42:59;;;;;;;10.82;6.38;;;;;;;16.33;100.00;100280.47;5034879;28;20084;-66
2021/09/14 00:45:43;;;;;;;7.47;6.75;;;;;;;16.27;100.00;100273.13;5034421;28;20052;-66
2021/09/14 00:48:27;;;;;;;8.38;6.78;;;;;;;16.23;100.00;100271.81;5034400;28;20080;-66
2021/09/14 00:51:11;;;;;;;8.98;6.40;;;;;;;16.19;100.00;100270.47;5019454;28;20136;-66
2021/09/14 00:53:55;;;;;;;7.47;6.60;;;;;;;16.15;100.00;100271.88;5019726;28;20052;-66
2021/09/14 00:56:40;;;;;;;9.85;7.38;;;;;;;16.13;100.00;100270.38;5019596;28;20040;-66
2021/09/14 00:59:25;;;;;;;9.23;7.43;;;;;;;16.10;100.00;100273.44;5033257;28;20048;-66
2021/09/14 01:04:50;;;;;;;7.70;6.78;;;;;;;16.03;100.00;100264.38;5775503;22;20049;-67
2021/09/14 01:07:34;;;;;;;7.88;6.72;;;;;;;15.98;100.00;100278.38;5034050;28;20072;-67
2021/09/14 01:10:18;;;;;;;8.80;7.20;;;;;;;15.96;100.00;100268.84;5033385;28;20115;-66
2021/09/14 01:13:03;;;;;;;8.45;6.07;;;;;;;15.95;100.00;100272.53;5033450;28;20047;-66
2021/09/14 01:15:46;;;;;;;9.50;7.30;;;;;;;15.91;100.00;100268.50;5049114;28;20048;-67
2021/09/14 01:18:30;;;;;;;7.70;6.90;;;;;;;15.88;100.00;100271.56;5054173;28;20596;-66
2021/09/14 01:21:20;;;;;;;11.23;6.88;;;;;;;15.85;100.00;100270.06;5061797;22;20141;-67
2021/09/14 01:24:05;;;;;;;11.60;7.28;;;;;;;15.84;100.00;100267.53;5013653;28;20463;-67
2021/09/14 01:26:51;;;;;;;8.07;6.22;;;;;;;15.81;100.00;100270.59;5013279;28;20052;-67
2021/09/14 01:32:43;;;;;;;7.78;6.90;;;;;;;15.73;100.00;100271.50;4994593;28;20057;-67
2021/09/14 01:35:29;;;;;;;8.80;6.70;;;;;;;15.70;100.00;100269.16;4993860;28;20061;-66
2021/09/14 01:38:13;;;;;;;8.98;6.65;;;;;;;15.68;100.00;100270.34;4979483;28;20097;-67
2021/09/14 01:40:57;;;;;;;9.13;6.75;;;;;;;15.63;100.00;100272.72;4994133;28;20077;-66
2021/09/14 01:43:41;;;;;;;9.25;6.63;;;;;;;15.59;100.00;100266.03;4994479;28;20053;-67
2021/09/14 01:46:26;;;;;;;7.30;6.60;;;;;;;15.56;100.00;100265.53;4994188;28;20108;-67
2021/09/14 01:49:09;;;;;;;9.15;6.93;;;;;;;15.51;100.00;100266.06;4994147;28;20447;-67
2021/09/14 01:51:53;;;;;;;8.07;7.28;;;;;;;15.49;100.00;100270.78;4994037;28;20177;-67
2021/09/14 01:54:37;;;;;;;8.27;7.40;;;;;;;15.46;100.00;100270.28;4994262;28;20460;-66
2021/09/14 01:57:30;;;;;;;9.55;7.50;;;;;;;15.44;100.00;100269.63;4994560;28;20085;-66
2021/09/14 02:00:17;;;;;;;8.73;7.32;;;;;;;15.47;100.00;100266.59;4994115;28;20077;-67
2021/09/14 02:59:42;;;;;;;10.82;7.57;;;;;;;15.30;100.00;100257.75;4997491;28;20049;-67
2021/09/14 03:02:26;;;;;;;7.97;7.18;;;;;;;15.29;100.00;100260.63;4982614;28;20100;-67
2021/09/14 03:05:10;;;;;;;9.75;7.00;;;;;;;15.26;100.00;100260.94;4997137;28;20526;-67
2021/09/14 03:07:54;;;;;;;8.95;7.32;;;;;;;15.23;100.00;100269.34;4996599;28;20085;-66
2021/09/14 03:10:38;;;;;;;10.77;7.97;;;;;;;15.17;100.00;100265.50;4982473;28;20081;-67
2021/09/14 03:13:24;;;;;;;9.20;7.65;;;;;;;15.12;100.00;100257.13;4996923;28;20092;-67
2021/09/14 03:16:10;;;;;;;9.52;7.70;;;;;;;15.10;100.00;100258.34;4996889;28;20042;-67
2021/09/14 03:18:55;;;;;;;11.13;7.20;;;;;;;15.05;100.00;100258.00;4996354;28;20452;-66
2021/09/14 03:21:38;;;;;;;11.02;7.75;;;;;;;15.02;100.00;100258.34;4995615;28;20433;-67
2021/09/14 03:24:22;;;;;;;9.52;8.48;;;;;;;14.99;100.00;100272.13;4997013;28;20050;-66
2021/09/14 03:27:06;;;;;;;8.90;7.18;;;;;;;14.93;100.00;100262.06;4996598;28;20416;-66
2021/09/14 03:29:50;;;;;;;8.35;7.55;;;;;;;14.89;100.00;100258.06;4982144;28;20049;-66
2021/09/14 03:32:34;;;;;;;9.60;7.85;;;;;;;14.87;100.00;100262.75;4997090;28;20056;-66
2021/09/14 03:35:18;;;;;;;11.02;8.52;;;;;;;14.85;100.00;100259.41;4996812;28;20077;-67
2021/09/14 03:38:02;;;;;;;11.85;7.88;;;;;;;14.86;100.00;100261.06;4996775;28;20060;-67
2021/09/14 03:40:46;;;;;;;10.13;7.53;;;;;;;14.88;100.00;100259.06;4982067;28;20056;-67
2021/09/14 03:43:29;;;;;;;9.15;7.32;;;;;;;14.86;100.00;100253.00;4995465;28;20081;-67
2021/09/14 03:46:13;;;;;;;14.70;7.88;;;;;;;14.85;100.00;100257.56;4995247;28;20089;-67
2021/09/14 03:48:57;;;;;;;12.05;8.27;;;;;;;14.83;100.00;100261.41;4996522;28;20100;-67
2021/09/14 03:51:41;;;;;;;9.02;7.97;;;;;;;14.80;100.00;100261.78;4996388;28;20057;-66
2021/09/14 03:54:25;;;;;;;8.35;7.05;;;;;;;14.77;100.00;100257.56;4996143;28;20137;-66
2021/09/14 03:57:09;;;;;;;9.40;8.32;;;;;;;14.74;100.00;100251.72;4996381;28;20093;-66
2021/09/14 03:59:53;;;;;;;8.75;7.00;;;;;;;14.73;100.00;100250.03;4996352;28;20053;-66
2021/09/14 04:10:56;;;;;;;14.15;8.15;;;;;;;14.67;100.00;100245.38;4995825;28;20052;-67
2021/09/14 04:13:40;;;;;;;9.43;7.80;;;;;;;14.68;100.00;100252.41;4981396;28;20104;-66
2021/09/14 04:16:24;;;;;;;10.50;7.53;;;;;;;14.65;100.00;100253.56;4996582;28;20041;-67
2021/09/14 04:19:08;;;;;;;13.18;8.27;;;;;;;14.64;100.00;100251.06;4996700;28;20509;-66
2021/09/14 04:21:52;;;;;;;10.70;8.55;;;;;;;14.61;100.00;100251.41;4995513;28;20567;-65
2021/09/14 04:24:36;;;;;;;9.85;8.57;;;;;;;14.55;100.00;100252.91;4995895;28;20053;-66
2021/09/14 04:27:20;;;;;;;9.68;8.30;;;;;;;14.56;100.00;100259.09;4995706;28;20552;-66
2021/09/14 04:30:05;;;;;;;9.18;7.32;;;;;;;14.59;100.00;100259.59;4995794;28;20506;-67
2021/09/14 04:32:49;;;;;;;8.35;7.50;;;;;;;14.63;100.00;100250.22;4981045;28;20045;-67
2021/09/14 04:35:33;;;;;;;11.60;8.38;;;;;;;14.64;100.00;100256.41;4980850;28;20044;-66
2021/09/14 04:38:17;;;;;;;7.95;7.15;;;;;;;14.64;100.00;100251.06;4995375;28;20056;-65
2021/09/14 04:41:01;;;;;;;9.77;8.60;;;;;;;14.65;100.00;100255.41;4994494;28;20053;-66
2021/09/14 04:43:45;;;;;;;9.93;8.30;;;;;;;14.62;100.00;100248.56;4995517;28;20140;-66
2021/09/14 04:46:30;;;;;;;14.15;8.55;;;;;;;14.57;100.00;100252.75;4980379;28;20100;-66
2021/09/14 04:49:14;;;;;;;10.68;8.05;;;;;;;14.48;100.00;100259.97;4994458;28;20099;-66
2021/09/14 04:51:57;;;;;;;10.40;8.45;;;;;;;14.41;100.00;100256.31;4980408;28;20508;-67
2021/09/14 04:54:41;;;;;;;9.70;7.38;;;;;;;14.38;100.00;100258.47;4995295;28;20053;-67
2021/09/14 04:57:25;;;;;;;12.77;7.80;;;;;;;14.35;100.00;100261.47;4980554;28;20049;-66
2021/09/14 05:00:11;;;;;;;11.13;8.15;;;;;;;14.36;100.00;100247.06;4980388;28;20093;-67
2021/09/14 05:02:55;;;;;;;9.80;7.95;;;;;;;14.34;100.00;100263.34;4995128;28;20185;-66
2021/09/14 05:05:39;;;;;;;13.15;8.32;;;;;;;14.33;100.00;100258.97;4994769;28;20049;-67
2021/09/14 05:08:23;;;;;;;12.73;8.52;;;;;;;14.34;100.00;100246.38;4994783;28;20075;-66
2021/09/14 05:11:09;;;;;;;9.57;8.00;;;;;;;14.35;100.00;100245.38;4993800;28;20049;-66
2021/09/14 05:13:54;;;;;;;13.30;8.65;;;;;;;14.36;100.00;100252.41;4994649;28;20044;-67
2021/09/14 05:16:37;;;;;;;13.63;9.75;;;;;;;14.33;100.00;100263.50;4980047;28;20138;-66
2021/09/14 05:19:33;;;;;;;11.35;9.30;;;;;;;14.29;100.00;100256.81;4994552;28;20060;-67
2021/09/14 05:22:22;;;;;;;9.40;8.35;;;;;;;14.28;100.00;100266.69;4994350;28;20053;-66
2021/09/14 05:25:06;;;;;;;8.95;8.05;;;;;;;14.29;100.00;100267.53;4993724;28;20129;-66
2021/09/14 05:27:50;;;;;;;10.73;8.88;;;;;;;14.32;100.00;100251.94;4993623;28;20105;-67
2021/09/14 05:30:34;;;;;;;11.77;8.50;;;;;;;14.36;100.00;100257.78;4994292;28;20053;-66
2021/09/14 05:33:18;;;;;;;10.40;9.13;;;;;;;14.42;100.00;100263.34;4994607;28;20069;-67
2021/09/14 05:36:03;;;;;;;15.63;9.52;;;;;;;14.48;100.00;100251.09;4994501;28;20512;-67
2021/09/14 05:38:47;;;;;;;11.48;9.10;;;;;;;14.52;100.00;100264.00;4993484;28;20076;-67
2021/09/14 05:41:31;;;;;;;10.75;8.18;;;;;;;14.55;100.00;100262.81;4994147;28;20180;-67
2021/09/14 05:44:15;;;;;;;14.43;9.27;;;;;;;14.62;100.00;100263.81;4994490;28;20082;-66
2021/09/14 05:46:59;;;;;;;10.00;8.50;;;;;;;14.67;100.00;100262.28;4994080;28;20492;-66
2021/09/14 05:49:43;;;;;;;10.30;8.90;;;;;;;14.76;100.00;100263.09;4994307;28;20428;-67
2021/09/14 05:52:26;;;;;;;11.60;9.23;;;;;;;14.85;100.00;100267.44;4979533;28;20077;-67
2021/09/14 05:55:11;;;;;;;13.88;8.73;;;;;;;14.91;100.00;100275.66;4994245;28;20049;-66
2021/09/14 05:57:54;;;;;;;9.02;8.13;;;;;;;15.02;100.00;100277.16;4994210;28;20092;-66
2021/09/14 06:00:38;;;;;;;11.02;9.00;;;;;;;15.12;100.00;100285.84;4993866;28;20416;-66
2021/09/14 06:03:22;;;;;;;10.43;8.93;;;;;;;15.18;100.00;100283.28;4979065;28;20053;-66
2021/09/14 06:06:09;;;;;;;12.18;8.63;;;;;;;15.29;100.00;100279.41;4993750;28;20057;-66
2021/09/14 06:08:53;;;;;;;9.57;8.43;;;;;;;15.39;100.00;100277.38;4979364;28;20092;-66
2021/09/14 06:11:37;;;;;;;12.38;8.63;;;;;;;15.51;100.00;100274.13;4993748;28;20053;-66
2021/09/14 06:14:21;;;;;;;9.52;7.85;;;;;;;15.63;100.00;100284.31;4993889;28;20050;-67
2021/09/14 06:17:05;;;;;;;12.23;8.25;;;;;;;15.75;100.00;100285.59;4993739;28;20048;-67
2021/09/14 06:19:49;;;;;;;10.10;8.10;;;;;;;15.84;100.00;100287.22;4993968;28;20053;-67
2021/09/14 06:22:33;;;;;;;10.90;7.78;;;;;;;15.95;100.00;100286.81;4993505;28;20466;-66
2021/09/14 06:25:17;;;;;;;12.88;9.90;;;;;;;16.05;100.00;100290.09;4993961;28;20085;-67
2021/09/14 06:28:01;;;;;;;15.07;11.52;;;;;;;16.15;100.00;100296.06;4993922;28;20045;-66
2021/09/14 06:30:45;;;;;;;12.35;9.75;;;;;;;16.26;100.00;100297.53;4997840;28;20468;-66
2021/09/14 06:33:29;;;;;;;11.13;9.70;;;;;;;16.39;100.00;100297.78;4997898;28;20409;-66
2021/09/14 06:36:13;;;;;;;10.13;8.18;;;;;;;16.49;100.00;100304.56;4997847;28;20516;-66
2021/09/14 06:38:56;;;;;;;9.35;8.45;;;;;;;16.59;100.00;100299.78;4997716;28;20500;-67
2021/09/14 06:41:40;;;;;;;13.90;9.65;;;;;;;16.70;100.00;100295.84;4997496;28;20077;-67
2021/09/14 06:44:24;;;;;;;13.25;11.27;;;;;;;16.80;100.00;100291.84;4997827;28;20543;-67
2021/09/14 06:47:08;;;;;;;19.98;14.35;;;;;;;16.89;100.00;100290.75;4997389;28;20514;-67
2021/09/14 06:49:52;;;;;;;15.88;11.32;;;;;;;17.04;100.00;100299.69;4982855;28;20100;-66
2021/09/14 06:52:38;;;;;;;15.32;11.65;;;;;;;17.15;100.00;100284.91;4997615;28;20049;-67
2021/09/14 06:55:21;;;;;;;14.35;10.98;;;;;;;17.23;100.00;100296.44;4996494;28;20129;-65
2021/09/14 06:58:06;;;;;;;15.43;11.55;;;;;;;17.33;100.00;100305.09;4997479;28;20077;-67
2021/09/14 07:00:49;;;;;;;16.65;11.98;;;;;;;17.43;100.00;100302.97;4997158;28;20053;-67
2021/09/14 07:03:34;;;;;;;16.45;12.60;;;;;;;17.54;100.00;100307.91;4982644;28;20416;-67
2021/09/14 07:06:18;;;;;;;14.60;11.48;;;;;;;17.68;100.00;100306.19;4997183;28;20049;-67
2021/09/14 07:09:02;;;;;;;14.85;11.63;;;;;;;17.76;100.00;100306.94;4982810;28;20053;-67
2021/09/14 07:11:45;;;;;;;17.88;12.68;;;;;;;17.84;100.00;100304.13;4996992;28;20069;-67
2021/09/14 07:14:29;;;;;;;16.27;12.73;;;;;;;17.95;100.00;100300.09;4997040;28;20100;-67
2021/09/14 07:17:13;;;;;;;17.65;12.77;;;;;;;18.07;100.00;100310.19;4997147;28;20065;-66
2021/09/14 07:19:57;;;;;;;14.60;11.02;;;;;;;18.21;100.00;100297.69;4997136;28;20057;-67
2021/09/14 07:22:41;;;;;;;17.67;12.20;;;;;;;18.35;99.82;100305.75;4998530;28;20173;-68
2021/09/14 07:25:26;;;;;;;15.45;11.38;;;;;;;18.48;98.71;100300.47;4997037;28;20452;-67
2021/09/14 07:28:11;;;;;;;14.98;11.55;;;;;;;18.62;97.67;100311.19;4996969;28;20069;-67
2021/09/14 07:30:55;;;;;;;16.55;10.85;;;;;;;18.74;96.18;100319.59;4982056;28;20049;-68
2021/09/14 07:33:39;;;;;;;15.50;11.43;;;;;;;18.84;95.38;100310.13;4995826;28;20049;-68
2021/09/14 07:36:23;;;;;;;13.52;11.38;;;;;;;18.92;94.20;100317.25;4996554;28;20097;-68
2021/09/14 07:39:07;;;;;;;11.50;10.13;;;;;;;19.07;94.00;100309.91;4996477;28;20053;-67
2021/09/14 07:41:51;;;;;;;;;;;;;;;19.21;94.01;100317.91;4997025;28;20045;-67
2021/09/14 07:44:35;;;;;;;14.23;9.10;;;;;;;19.39;93.60;100315.50;4996668;28;20000;-68
2021/09/14 07:47:19;;;;;;;;;;;;;;;19.55;91.79;100317.06;4996660;28;20104;-68
2021/09/14 07:50:04;;;;;;;14.70;11.95;;;;;;;19.70;91.15;100315.06;4996353;28;19970;-68
2021/09/14 07:52:49;;;;;;;14.05;11.20;;;;;;;19.89;89.38;100312.44;4995585;28;20413;-67
2021/09/14 07:55:34;;;;;;;16.00;10.70;;;;;;;20.05;87.19;100311.25;4995449;28;20045;-68
2021/09/14 07:58:18;;;;;;;12.48;9.95;;;;;;;20.17;86.72;100321.31;4981700;28;20456;-68
2021/09/14 08:01:01;;;;;;;13.32;10.02;;;;;;;20.35;85.83;100313.44;4996501;28;20101;-68
2021/09/14 08:03:45;;;;;;;13.57;10.43;;;;;;;20.49;85.95;100319.69;4996264;28;20406;-68
2021/09/14 08:06:29;;;;;;;12.73;10.75;;;;;;;20.62;85.02;100322.41;4996168;28;20089;-67
2021/09/14 08:09:13;;;;;;;;;;;;;;;20.71;85.05;100318.47;4981773;28;20423;-67
2021/09/14 08:11:58;;;;;;;12.40;10.00;;;;;;;20.88;83.31;100314.31;4996076;28;20394;-68
2021/09/14 08:14:42;;;;;;;16.85;11.15;;;;;;;20.98;82.10;100303.88;4995097;28;20084;-68
2021/09/14 08:17:26;;;;;;;12.95;9.57;;;;;;;21.17;81.66;100305.75;4995765;28;20472;-68
2021/09/14 08:20:10;;;;;;;14.57;11.60;;;;;;;21.32;81.09;100313.44;4995640;28;20423;-68
2021/09/14 08:22:54;;;;;;;14.82;9.98;;;;;;;21.55;80.49;100302.94;4994599;28;20053;-68
2021/09/14 08:25:38;;;;;;;12.77;11.43;;;;;;;21.73;78.69;100300.41;4995784;28;20072;-68
2021/09/14 08:28:22;;;;;;;11.30;9.80;;;;;;;21.89;78.13;100293.66;4995767;28;20119;-68
2021/09/14 08:31:06;;;;;;;16.38;12.10;;;;;;;21.95;78.18;100299.03;4995744;28;20050;-68
2021/09/14 08:33:50;;;;;;;;;;;;;;;21.92;77.88;100307.63;4996169;28;20135;-68
2021/09/14 08:36:34;;;;;;;13.80;11.60;;;;;;;22.04;76.45;100297.75;4995821;28;19920;-68
2021/09/14 08:39:18;;;;;;;12.15;10.75;;;;;;;22.11;77.56;100308.56;4994412;28;20086;-68
2021/09/14 08:42:01;;;;;;;15.55;10.77;;;;;;;22.22;76.12;100308.69;4980524;28;20104;-68
2021/09/14 08:44:46;;;;;;;14.93;12.00;;;;;;;22.20;75.56;100315.41;4994494;28;20101;-67
2021/09/14 08:47:30;;;;;;;12.23;10.77;;;;;;;22.15;76.09;100316.06;4994037;28;20172;-68
2021/09/14 08:50:14;;;;;;;14.38;10.93;;;;;;;22.18;75.93;100304.75;4995102;28;20486;-67
2021/09/14 08:52:58;;;;;;;13.18;9.55;;;;;;;22.35;76.03;100308.63;4994833;28;20069;-68
2021/09/14 08:55:43;;;;;;;11.90;10.10;;;;;;;22.35;74.85;100310.50;4995084;28;20053;-68
2021/09/14 08:58:27;;;;;;;12.50;10.25;;;;;;;22.23;74.54;100301.41;4995047;28;20167;-68
2021/09/14 09:01:14;;;;;;;11.73;9.13;;;;;;;22.29;75.06;100301.34;4995231;28;20110;-68
2021/09/14 09:04:03;;;;;;;14.55;10.10;;;;;;;22.45;74.34;100295.44;4994932;28;20057;-68
2021/09/14 09:06:49;;;;;;;10.25;7.90;;;;;;;22.85;73.62;100302.22;4995016;28;20447;-68
2021/09/14 09:09:33;;;;;;;12.27;8.93;;;;;;;23.24;70.81;100296.41;4994050;28;20089;-68
2021/09/14 09:12:16;;;;;;;;;;;;;;;23.61;69.54;100294.53;4995916;28;20157;-68
2021/09/14 09:15:01;;;;;;;11.48;8.15;;;;;;;23.98;66.71;100305.22;4994020;28;20052;-68
2021/09/14 09:17:45;;;;;;;10.25;8.38;;;;;;;23.91;66.91;100290.88;4993943;28;20041;-68
2021/09/14 09:20:31;;;;;;;12.27;8.38;;;;;;;24.13;66.08;100302.91;4994614;28;20112;-68
2021/09/14 09:23:23;;;;;;;12.30;8.05;;;;;;;24.54;64.40;100300.25;4994552;28;20049;-68
2021/09/14 09:26:08;;;;;;;11.50;8.98;;;;;;;24.97;63.08;100298.06;4994425;28;20089;-68
2021/09/14 09:28:58;;;;;;;13.77;9.05;;;;;;;25.39;61.62;100302.34;4979953;28;20524;-67
2021/09/14 09:31:46;;;;;;;15.55;9.10;;;;;;;25.93;59.84;100301.94;4993552;28;20557;-68
2021/09/14 09:34:30;;;;;;;10.40;8.18;;;;;;;26.60;57.35;100303.75;4993596;28;20045;-68
2021/09/14 09:37:15;;;;;;;8.75;7.40;;;;;;;27.66;55.52;100305.19;4979828;28;20048;-68
2021/09/14 09:39:59;;;;;;;10.55;8.15;;;;;;;28.83;50.50;100304.34;4994217;28;20089;-68
2021/09/14 09:42:48;;;;;;;9.52;7.82;;;;;;;29.96;46.81;100301.81;4994448;28;20189;-68
2021/09/14 09:45:32;;;;;;;10.52;7.70;;;;;;;30.28;44.90;100287.66;4994378;28;20516;-68
2021/09/14 09:48:16;;;;;;;9.10;7.60;;;;;;;31.93;41.99;100289.47;4994381;28;20559;-67
2021/09/14 09:51:00;;;;;;;9.93;7.57;;;;;;;33.81;38.33;100294.59;4979780;28;20084;-68
2021/09/14 09:53:45;;;;;;;10.98;8.70;;;;;;;34.64;35.27;100292.91;4993236;28;20503;-67
2021/09/14 09:56:30;;;;;;;12.35;9.05;;;;;;;34.55;35.48;100286.38;4993693;28;20113;-68
2021/09/14 09:59:15;;;;;;;10.48;7.63;;;;;;;35.57;35.07;100284.34;4993900;28;20048;-68
2021/09/14 10:02:23;;;;;;;9.98;7.75;;;;;;;36.67;32.60;100280.84;4993860;28;20515;-67
2021/09/14 10:05:08;;;;;;;8.35;5.75;;;;;;;37.63;31.27;100281.97;4993900;28;20053;-66
2021/09/14 10:07:53;;;;;;;8.70;7.50;;;;;;;37.73;31.04;100270.53;4979341;28;20048;-66
2021/09/14 10:10:39;;;;;;;13.05;8.73;;;;;;;36.61;31.45;100284.06;4992741;28;20052;-65
2021/09/14 10:13:35;;;;;;;14.32;8.75;;;;;;;35.48;33.11;100270.38;4993069;28;20056;-67
2021/09/14 10:16:23;;;;;;;9.98;8.52;;;;;;;34.12;35.73;100282.03;4993704;28;20069;-68
2021/09/14 10:19:14;;;;;;;13.68;8.40;;;;;;;33.74;36.94;100277.53;4994006;28;20459;-68
2021/09/14 10:22:03;;;;;;;10.20;8.02;;;;;;;33.54;36.88;100277.75;4978727;28;20088;-68
2021/09/14 10:24:52;;;;;;;8.65;7.00;;;;;;;33.63;37.65;100272.41;4992680;28;20558;-68
2021/09/14 10:27:38;;;;;;;10.63;8.25;;;;;;;33.81;36.68;100274.41;4978805;28;20144;-68
2021/09/14 10:30:24;;;;;;;8.93;8.07;;;;;;;33.96;36.18;100266.75;4992568;28;20085;-68
2021/09/14 10:33:27;;;;;;;11.68;7.35;;;;;;;34.42;36.14;100278.84;4993629;28;20161;-68
2021/09/14 10:36:14;;;;;;;9.98;7.30;;;;;;;35.32;34.81;100282.91;4979342;28;20045;-68
2021/09/14 10:38:59;;;;;;;11.13;7.82;;;;;;;36.41;32.95;100285.34;4993617;28;20061;-68
2021/09/14 10:41:45;;;;;;;9.73;7.30;;;;;;;37.16;31.75;100288.25;4992575;28;20128;-68
2021/09/14 10:44:31;;;;;;;9.80;7.10;;;;;;;37.75;30.64;100271.03;4993543;28;20100;-68
2021/09/14 10:47:20;;;;;;;11.48;7.45;;;;;;;36.80;32.04;100276.38;4992686;28;20053;-68
2021/09/14 10:50:06;;;;;;;11.07;7.22;;;;;;;36.40;32.31;100275.38;4992782;28;20113;-68
2021/09/14 10:52:56;;;;;;;12.18;7.28;;;;;;;35.88;33.16;100269.59;4993716;28;20096;-68
2021/09/14 10:55:53;;;;;;;11.60;7.50;;;;;;;33.82;36.71;100262.22;4992454;28;20049;-68
2021/09/14 10:58:40;;;;;;;9.32;7.28;;;;;;;32.18;39.82;100268.09;4979206;28;20042;-67
2021/09/14 11:01:25;;;;;;;8.25;6.80;;;;;;;31.37;41.84;100265.94;4978685;28;20053;-68
2021/09/14 11:04:09;;;;;;;10.40;7.35;;;;;;;30.31;45.17;100267.84;4993471;28;20057;-68
2021/09/14 11:06:53;;;;;;;12.52;8.30;;;;;;;29.44;47.52;100268.84;4993287;28;20066;-68
2021/09/14 11:09:37;;;;;;;11.35;7.20;;;;;;;29.92;47.41;100267.72;4993453;28;20053;-68
2021/09/14 11:12:22;;;;;;;11.13;7.15;;;;;;;31.26;43.93;100264.31;4993322;28;20044;-68
2021/09/14 11:15:07;;;;;;;9.63;7.20;;;;;;;32.81;40.76;100261.59;4994776;28;20196;-68
2021/09/14 11:17:51;;;;;;;9.73;7.07;;;;;;;34.52;36.90;100256.53;4996846;28;20048;-68
2021/09/14 11:20:36;;;;;;;10.68;7.40;;;;;;;35.45;35.19;100256.31;4996875;28;20053;-68
2021/09/14 11:23:25;;;;;;;12.35;6.72;;;;;;;35.70;34.58;100255.84;4968727;28;20072;-68
2021/09/14 11:26:11;;;;;;;8.27;7.07;;;;;;;35.26;35.01;100253.63;4981847;28;20053;-68
2021/09/14 11:28:57;;;;;;;10.35;7.15;;;;;;;33.11;38.71;100259.41;4995980;28;20555;-68
2021/09/14 11:31:41;;;;;;;6.72;6.10;;;;;;;32.72;40.33;100254.25;4995612;28;20581;-68
2021/09/14 11:34:25;;;;;;;7.35;6.63;;;;;;;32.06;41.90;100264.03;4996103;28;20057;-68
2021/09/14 11:37:09;;;;;;;11.50;6.90;;;;;;;31.23;43.78;100259.38;4995454;28;20053;-68
2021/09/14 11:39:53;;;;;;;12.02;7.25;;;;;;;30.70;45.46;100266.25;4995544;28;20057;-68
2021/09/14 11:42:37;;;;;;;8.75;7.32;;;;;;;30.48;45.71;100262.09;4981740;28;20101;-68
2021/09/14 11:45:24;;;;;;;10.35;7.07;;;;;;;29.72;48.17;100267.63;4996622;28;20061;-68
2021/09/14 11:48:16;;;;;;;8.73;7.18;;;;;;;29.43;49.60;100269.09;4981487;28;20161;-68
2021/09/14 11:51:05;;;;;;;10.43;7.00;;;;;;;29.75;48.69;100267.13;4996067;28;20409;-68
2021/09/14 11:53:50;;;;;;;6.78;6.07;;;;;;;31.31;45.61;100261.53;4995445;28;20053;-68
2021/09/14 11:56:34;;;;;;;10.73;7.00;;;;;;;33.78;40.35;100255.66;4996273;28;20045;-68
2021/09/14 11:59:18;;;;;;;12.15;7.32;;;;;;;35.68;36.49;100249.78;4981123;28;20053;-68
2021/09/14 12:02:03;;;;;;;14.20;6.85;;;;;;;36.31;34.80;100255.03;4995925;28;20137;-68
2021/09/14 12:04:57;;;;;;;9.70;7.18;;;;;;;36.93;33.73;100251.28;4981498;28;20544;-67
2021/09/14 12:07:42;;;;;;;9.65;6.38;;;;;;;36.74;33.65;100256.22;4981195;28;20049;-66
2021/09/14 12:10:27;;;;;;;8.05;6.90;;;;;;;36.82;33.00;100254.63;4995381;28;20144;-68
2021/09/14 12:13:16;;;;;;;8.23;6.60;;;;;;;36.80;33.25;100248.59;4995855;28;20101;-68
2021/09/14 12:16:10;;;;;;;7.13;6.43;;;;;;;36.86;32.96;100252.88;4981137;28;20132;-68
2021/09/14 12:18:56;;;;;;;10.07;6.75;;;;;;;36.79;32.95;100244.16;4996267;28;20096;-67
2021/09/14 12:21:40;;;;;;;9.40;6.70;;;;;;;36.52;34.06;100241.47;4994613;28;20085;-68
2021/09/14 12:24:24;;;;;;;10.68;7.03;;;;;;;34.72;35.64;100239.63;4996011;28;20527;-68
2021/09/14 12:27:08;;;;;;;9.90;7.13;;;;;;;33.75;37.88;100243.22;4979726;28;20048;-68
2021/09/14 12:29:52;;;;;;;13.70;7.80;;;;;;;31.92;41.76;100249.22;4995818;28;20120;-66
2021/09/14 12:32:35;;;;;;;8.77;7.70;;;;;;;30.89;44.71;100244.50;4995822;28;20530;-67
2021/09/14 12:35:19;;;;;;;11.55;7.05;;;;;;;30.17;47.24;100254.88;4995484;28;20523;-67
2021/09/14 12:38:03;;;;;;;13.90;8.38;;;;;;;29.93;48.03;100243.50;4995383;28;20117;-67
2021/09/14 12:40:47;;;;;;;9.00;7.43;;;;;;;29.58;49.85;100239.81;4995542;28;20100;-67
2021/09/14 12:43:32;;;;;;;10.13;6.68;;;;;;;29.74;49.85;100238.78;4995341;28;20056;-67
2021/09/14 12:46:17;;;;;;;9.82;7.20;;;;;;;29.32;50.41;100243.50;4995471;28;20484;-68
2021/09/14 12:49:01;;;;;;;8.40;7.20;;;;;;;29.20;50.22;100236.56;4980741;28;20214;-67
2021/09/14 12:51:46;;;;;;;10.90;7.20;;;;;;;29.51;49.59;100236.50;4994041;28;20049;-67
2021/09/14 12:54:30;;;;;;;11.27;6.57;;;;;;;29.77;48.91;100226.44;4995357;28;20045;-68
2021/09/14 12:57:14;;;;;;;9.18;6.85;;;;;;;29.39;50.24;100235.88;4995322;28;20077;-67
2021/09/14 12:59:58;;;;;;;;;;;;;;;29.07;49.78;100232.38;4995632;28;20049;-67
2021/09/14 13:02:42;;;;;;;8.88;7.15;;;;;;;29.17;51.05;100232.44;4980457;28;19924;-67
2021/09/14 13:05:27;;;;;;;9.43;6.97;;;;;;;28.89;52.38;100230.03;4995131;28;20416;-67
2021/09/14 13:08:12;;;;;;;10.68;7.32;;;;;;;29.47;49.80;100227.09;4993659;28;20133;-67
2021/09/14 13:10:56;;;;;;;15.60;7.45;;;;;;;30.35;48.81;100218.63;4994429;28;20052;-68
2021/09/14 13:16:43;;;;;;;9.25;6.72;;;;;;;31.98;44.56;100223.25;4993586;28;20586;-67
2021/09/14 13:19:27;;;;;;;8.63;6.30;;;;;;;32.74;42.92;100221.66;4994432;28;20190;-66
2021/09/14 13:22:11;;;;;;;9.30;6.13;;;;;;;33.76;40.99;100225.53;4995635;28;20154;-67
2021/09/14 13:24:55;;;;;;;8.90;5.95;;;;;;;34.70;38.00;100218.91;4993778;28;20089;-67
2021/09/14 13:27:39;;;;;;;7.70;5.65;;;;;;;35.74;36.22;100223.56;4993703;28;20073;-67
2021/09/14 13:30:23;;;;;;;6.70;5.82;;;;;;;36.40;35.05;100216.22;4979623;28;20052;-66
2021/09/14 13:33:07;;;;;;;6.75;5.20;;;;;;;37.08;34.31;100208.41;4993594;28;20053;-67
2021/09/14 13:35:51;;;;;;;7.28;5.32;;;;;;;37.57;33.12;100205.38;4979859;28;20096;-67
2021/09/14 13:38:35;;;;;;;7.07;5.53;;;;;;;38.55;31.25;100207.31;4993532;28;20120;-67
2021/09/14 13:41:25;;;;;;;5.82;5.15;;;;;;;38.85;30.46;100197.94;4979684;28;20064;-67
2021/09/14 13:47:12;;;;;;;5.25;4.75;;;;;;;37.15;32.52;100192.06;4994478;28;20193;-67
2021/09/14 13:49:57;;;;;;;5.65;5.07;;;;;;;36.26;33.00;100204.38;4979483;28;20193;-67
2021/09/14 13:52:42;;;;;;;5.63;4.53;;;;;;;34.53;37.16;100197.28;4993084;28;20049;-66
2021/09/14 13:55:26;;;;;;;5.18;4.78;;;;;;;33.22;38.89;100202.94;4979516;28;20053;-66